Time;durP1;ratioP1;P1;durP2;ratioP2;P2;SDS_P1;SDS_P2;PMS_P1;PMS_P2;Temp;Humidity;BMP_temperature;BMP_pressure;BME280_temperature;BME280_humidity;BME280_pressure;Samples;Min_cycle;Max_cycle;Signal;HPM_P1;HPM_P2
2023/07/22 00:04:39;;;;;;;4.38;2.22;;;;;;;;;;12902501;23;20376;-93
2023/07/22 00:09:43;;;;;;;3.10;1.85;;;;;;;;;;12921667;23;20426;-94
2023/07/22 00:14:45;;;;;;;2.80;1.80;;;;;;;;;;12901338;23;20407;-93
2023/07/22 00:19:49;;;;;;;5.75;2.08;;;;;;;;;;12901909;23;20910;-93
2023/07/22 00:24:51;;;;;;;2.72;1.70;;;;;;;;;;12922501;23;20368;-93
2023/07/22 00:29:54;;;;;;;3.45;2.10;;;;;;;;;;12902903;23;20388;-92
2023/07/22 00:34:58;;;;;;;3.17;2.00;;;;;;;;;;12911346;23;20966;-93
2023/07/22 00:40:06;;;;;;;3.07;2.23;;;;;;;;;;12925666;23;20426;-94
2023/07/22 00:45:09;;;;;;;3.47;2.40;;;;;;;;;;12900623;23;20442;-93
2023/07/22 00:50:13;;;;;;;3.85;2.83;;;;;;;;;;12875349;22;20744;-93
2023/07/22 00:55:15;;;;;;;5.53;2.83;;;;;;;;;;12899757;22;20415;-93
2023/07/22 01:00:18;;;;;;;3.50;2.80;;;;;;;;;;12901509;23;20836;-93
2023/07/22 01:05:22;;;;;;;3.73;2.60;;;;;;;;;;12920329;22;20399;-93
2023/07/22 01:10:25;;;;;;;3.13;2.55;;;;;;;;;;12902799;22;20373;-93
2023/07/22 01:15:29;;;;;;;3.30;2.40;;;;;;;;;;12902516;22;20450;-93
2023/07/22 01:20:34;;;;;;;3.03;2.25;;;;;;;;;;12913721;22;20364;-93
2023/07/22 01:25:38;;;;;;;3.13;2.20;;;;;;;;;;12943890;22;20406;-93
2023/07/22 01:30:40;;;;;;;2.97;2.30;;;;;;;;;;12921208;23;20740;-94
2023/07/22 01:35:43;;;;;;;4.00;2.47;;;;;;;;;;12897600;22;20918;-92
2023/07/22 01:40:47;;;;;;;4.53;2.28;;;;;;;;;;12897748;22;20372;-93
2023/07/22 01:45:50;;;;;;;2.60;1.60;;;;;;;;;;12919893;23;20921;-92
2023/07/22 01:50:52;;;;;;;3.10;1.47;;;;;;;;;;12902999;22;20411;-93
2023/07/22 01:55:56;;;;;;;2.22;1.40;;;;;;;;;;12898600;22;20503;-93
2023/07/22 02:00:59;;;;;;;1.60;1.13;;;;;;;;;;12924581;23;20450;-93
2023/07/22 02:06:05;;;;;;;1.45;1.05;;;;;;;;;;12907061;22;20446;-94
2023/07/22 02:11:09;;;;;;;2.20;1.33;;;;;;;;;;12905174;22;20372;-93
2023/07/22 02:16:12;;;;;;;1.70;1.50;;;;;;;;;;12907417;22;20414;-94
2023/07/22 02:21:14;;;;;;;2.20;1.30;;;;;;;;;;12907089;22;20943;-94
2023/07/22 02:26:19;;;;;;;1.97;1.40;;;;;;;;;;12909639;22;20434;-93
2023/07/22 02:31:22;;;;;;;2.30;1.33;;;;;;;;;;12905429;23;20435;-93
2023/07/22 02:36:24;;;;;;;3.70;1.30;;;;;;;;;;12907909;22;20388;-93
2023/07/22 02:41:28;;;;;;;2.72;1.27;;;;;;;;;;12915057;23;20376;-93
2023/07/22 02:46:31;;;;;;;2.33;1.30;;;;;;;;;;12910451;22;20403;-94
2023/07/22 02:51:33;;;;;;;2.63;1.92;;;;;;;;;;12927353;22;20380;-93
2023/07/22 02:56:37;;;;;;;2.72;1.50;;;;;;;;;;12904276;22;20380;-93
2023/07/22 03:01:40;;;;;;;3.28;1.50;;;;;;;;;;12906718;23;20422;-93
2023/07/22 03:06:44;;;;;;;3.38;1.77;;;;;;;;;;12907137;22;20352;-93
2023/07/22 03:11:48;;;;;;;1.73;1.15;;;;;;;;;;12905278;22;20372;-94
2023/07/22 03:16:51;;;;;;;3.30;1.83;;;;;;;;;;12904726;22;20384;-93
2023/07/22 03:21:54;;;;;;;2.80;1.80;;;;;;;;;;12931343;23;20364;-93
2023/07/22 03:26:58;;;;;;;2.65;1.52;;;;;;;;;;12926362;22;20361;-93
2023/07/22 03:32:01;;;;;;;3.03;1.92;;;;;;;;;;12905098;22;20365;-93
2023/07/22 03:37:03;;;;;;;2.25;1.80;;;;;;;;;;12946133;22;20402;-93
2023/07/22 03:42:08;;;;;;;4.60;1.95;;;;;;;;;;12973393;23;20398;-94
2023/07/22 03:47:11;;;;;;;3.10;1.87;;;;;;;;;;12905525;22;20360;-93
2023/07/22 03:52:14;;;;;;;4.07;1.90;;;;;;;;;;12902648;22;20859;-94
2023/07/22 03:57:18;;;;;;;3.67;1.95;;;;;;;;;;12927063;23;20376;-94
2023/07/22 04:02:20;;;;;;;4.22;1.90;;;;;;;;;;12904513;23;20372;-94
2023/07/22 04:07:23;;;;;;;5.10;2.05;;;;;;;;;;12905953;22;20361;-92
2023/07/22 04:12:27;;;;;;;3.00;1.90;;;;;;;;;;12917501;22;20364;-93
2023/07/22 04:17:30;;;;;;;2.40;1.70;;;;;;;;;;12905657;22;20450;-93
2023/07/22 04:22:32;;;;;;;5.37;2.07;;;;;;;;;;12902302;22;20364;-93
2023/07/22 04:27:36;;;;;;;2.17;1.80;;;;;;;;;;12909720;22;20379;-92
2023/07/22 04:32:39;;;;;;;2.75;1.88;;;;;;;;;;12908349;22;20415;-93
2023/07/22 04:37:41;;;;;;;3.10;1.90;;;;;;;;;;12902182;22;20411;-93
2023/07/22 04:42:46;;;;;;;2.38;1.80;;;;;;;;;;12903632;22;20918;-92
2023/07/22 04:47:48;;;;;;;2.40;1.70;;;;;;;;;;12907531;22;20357;-92
2023/07/22 04:52:51;;;;;;;3.33;1.80;;;;;;;;;;12916404;22;20360;-92
2023/07/22 04:57:55;;;;;;;2.90;1.60;;;;;;;;;;12923951;23;20442;-93
2023/07/22 05:02:57;;;;;;;2.80;1.80;;;;;;;;;;12919303;23;20373;-92
2023/07/22 05:08:00;;;;;;;3.83;1.70;;;;;;;;;;12920972;22;20430;-93
2023/07/22 05:13:04;;;;;;;2.17;1.65;;;;;;;;;;12920118;22;20357;-93
2023/07/22 05:18:07;;;;;;;2.50;1.70;;;;;;;;;;12918758;23;20384;-93
2023/07/22 05:23:09;;;;;;;2.28;1.67;;;;;;;;;;12919417;22;20364;-92
2023/07/22 05:28:13;;;;;;;5.87;1.77;;;;;;;;;;12920134;22;20364;-93
2023/07/22 05:33:15;;;;;;;3.28;1.90;;;;;;;;;;12931706;22;20364;-93
2023/07/22 05:38:18;;;;;;;2.78;1.83;;;;;;;;;;12919281;22;20856;-92
2023/07/22 05:43:21;;;;;;;2.63;1.40;;;;;;;;;;12919475;23;20693;-93
2023/07/22 05:48:24;;;;;;;2.17;1.38;;;;;;;;;;12920475;22;20693;-93
2023/07/22 05:53:26;;;;;;;2.20;1.50;;;;;;;;;;12920297;22;20458;-92
2023/07/22 05:58:30;;;;;;;3.35;1.60;;;;;;;;;;12919816;22;20453;-92
2023/07/22 06:03:33;;;;;;;2.20;1.58;;;;;;;;;;12920214;22;20372;-93
2023/07/22 06:08:35;;;;;;;2.50;1.40;;;;;;;;;;12940983;23;20410;-92
2023/07/22 06:13:39;;;;;;;3.00;1.63;;;;;;;;;;12920195;22;20421;-93
2023/07/22 06:18:41;;;;;;;3.57;1.60;;;;;;;;;;12919751;22;20446;-93
2023/07/22 06:23:44;;;;;;;3.33;1.75;;;;;;;;;;12941859;23;20827;-92
2023/07/22 06:28:48;;;;;;;3.60;1.77;;;;;;;;;;12922144;23;20379;-93
2023/07/22 06:33:50;;;;;;;2.65;1.60;;;;;;;;;;12925311;22;20364;-93
2023/07/22 06:38:54;;;;;;;3.53;1.75;;;;;;;;;;12943936;22;20384;-93
2023/07/22 06:43:58;;;;;;;2.00;1.40;;;;;;;;;;12921255;23;20835;-93
2023/07/22 06:49:00;;;;;;;2.47;1.20;;;;;;;;;;12923290;22;20448;-93
2023/07/22 06:54:04;;;;;;;1.88;1.30;;;;;;;;;;12923253;22;20406;-93
2023/07/22 06:59:08;;;;;;;2.85;1.38;;;;;;;;;;12923999;22;21028;-93
2023/07/22 07:04:11;;;;;;;1.90;1.38;;;;;;;;;;12922947;22;20364;-92
2023/07/22 07:09:13;;;;;;;2.17;1.48;;;;;;;;;;12945213;23;20372;-91
2023/07/22 07:14:17;;;;;;;3.13;1.38;;;;;;;;;;12926169;22;20395;-94
2023/07/22 07:19:20;;;;;;;2.55;1.40;;;;;;;;;;12924951;22;20388;-93
2023/07/22 07:24:22;;;;;;;2.50;1.40;;;;;;;;;;12928610;22;20462;-92
2023/07/22 07:29:26;;;;;;;1.95;1.10;;;;;;;;;;12915358;22;20384;-92
2023/07/22 07:34:29;;;;;;;3.00;1.63;;;;;;;;;;12921004;22;20369;-87
2023/07/22 07:39:31;;;;;;;2.22;1.40;;;;;;;;;;12917548;22;20388;-83
2023/07/22 07:44:35;;;;;;;2.20;1.20;;;;;;;;;;12937720;22;20360;-92
2023/07/22 07:49:40;;;;;;;1.85;1.33;;;;;;;;;;12927559;22;20361;-91
2023/07/22 07:54:53;;;;;;;1.05;0.95;;;;;;;;;;12919058;23;20364;-91
2023/07/22 07:59:57;;;;;;;1.67;1.33;;;;;;;;;;12920387;23;20376;-90
2023/07/22 08:04:59;;;;;;;2.15;1.40;;;;;;;;;;12920374;23;20376;-92
2023/07/22 08:10:04;;;;;;;2.20;1.20;;;;;;;;;;12938871;22;20369;-89
2023/07/22 08:15:09;;;;;;;2.45;1.17;;;;;;;;;;12939827;22;20365;-91
2023/07/22 08:20:12;;;;;;;1.77;1.30;;;;;;;;;;12918795;22;20859;-88
2023/07/22 08:25:15;;;;;;;2.65;1.40;;;;;;;;;;12918361;23;20735;-89
2023/07/22 08:30:19;;;;;;;2.40;1.48;;;;;;;;;;12920347;22;20365;-93
2023/07/22 08:35:22;;;;;;;1.92;1.30;;;;;;;;;;12922075;23;20376;-92
2023/07/22 08:40:25;;;;;;;3.45;1.40;;;;;;;;;;12921901;22;20925;-93
2023/07/22 08:45:32;;;;;;;1.90;1.33;;;;;;;;;;12943548;23;20372;-93
2023/07/22 08:50:40;;;;;;;2.20;1.13;;;;;;;;;;12931649;22;20844;-94
2023/07/22 08:55:43;;;;;;;2.63;1.10;;;;;;;;;;12928651;23;20918;-91
2023/07/22 09:00:49;;;;;;;2.97;1.20;;;;;;;;;;12929266;23;20703;-95
2023/07/22 09:05:52;;;;;;;3.13;1.20;;;;;;;;;;12921865;23;20372;-94
2023/07/22 09:10:55;;;;;;;2.20;1.10;;;;;;;;;;12921242;22;20365;-94
2023/07/22 09:16:00;;;;;;;1.50;1.10;;;;;;;;;;12921860;22;20365;-94
2023/07/22 09:21:03;;;;;;;3.45;1.33;;;;;;;;;;12921583;23;20380;-94
2023/07/22 09:26:13;;;;;;;2.50;1.83;;;;;;;;;;12929234;22;20474;-95
2023/07/22 09:31:17;;;;;;;2.90;1.00;;;;;;;;;;12930916;23;20365;-95
2023/07/22 09:36:19;;;;;;;1.50;1.30;;;;;;;;;;12931914;23;20369;-95
2023/07/22 09:41:22;;;;;;;1.98;1.35;;;;;;;;;;12929280;22;20384;-94
2023/07/22 09:46:32;;;;;;;1.83;1.20;;;;;;;;;;12923290;22;20368;-91
2023/07/22 09:51:36;;;;;;;2.07;1.20;;;;;;;;;;12926192;22;20373;-93
2023/07/22 09:56:46;;;;;;;3.03;1.10;;;;;;;;;;12924626;23;20365;-94
2023/07/22 10:01:51;;;;;;;2.37;1.87;;;;;;;;;;12935251;22;20458;-93
2023/07/22 10:06:54;;;;;;;1.70;1.20;;;;;;;;;;12922913;23;20369;-95
2023/07/22 10:11:57;;;;;;;1.73;1.38;;;;;;;;;;12923198;22;20364;-92
2023/07/22 10:17:01;;;;;;;2.57;1.40;;;;;;;;;;12921643;22;20414;-91
2023/07/22 10:22:04;;;;;;;1.52;1.30;;;;;;;;;;12945645;23;20460;-90
2023/07/22 10:27:08;;;;;;;1.40;1.20;;;;;;;;;;12930147;23;20415;-90
2023/07/22 10:32:12;;;;;;;1.40;1.30;;;;;;;;;;12941063;23;20910;-89
2023/07/22 10:37:14;;;;;;;57.45;35.97;;;;;;;;;;12919736;22;20681;-89
2023/07/22 10:42:25;;;;;;;2.20;1.30;;;;;;;;;;12918688;22;20361;-89
2023/07/22 10:47:37;;;;;;;2.45;1.50;;;;;;;;;;12918656;22;20391;-89
2023/07/22 10:52:42;;;;;;;14.07;7.03;;;;;;;;;;12923291;22;20360;-91
2023/07/22 10:57:52;;;;;;;3.95;1.60;;;;;;;;;;12921597;22;20432;-89
2023/07/22 11:03:12;;;;;;;2.70;1.70;;;;;;;;;;12920856;22;20361;-91
2023/07/22 11:08:14;;;;;;;2.45;1.60;;;;;;;;;;12931890;23;20418;-90
2023/07/22 11:13:19;;;;;;;2.30;1.42;;;;;;;;;;12917282;22;22503;-91
2023/07/22 11:18:22;;;;;;;2.25;1.95;;;;;;;;;;12926410;22;20388;-90
2023/07/22 11:23:25;;;;;;;2.33;1.40;;;;;;;;;;12912934;22;20461;-90
2023/07/22 11:28:28;;;;;;;1.95;1.60;;;;;;;;;;12928483;22;20373;-90
2023/07/22 11:33:40;;;;;;;2.65;1.77;;;;;;;;;;12915014;22;20380;-89
2023/07/22 11:38:42;;;;;;;3.93;1.60;;;;;;;;;;12933923;22;20380;-90
2023/07/22 11:43:45;;;;;;;4.00;1.80;;;;;;;;;;12915828;22;20698;-89
2023/07/22 11:48:53;;;;;;;3.65;1.95;;;;;;;;;;12916904;22;20368;-89
2023/07/22 11:53:56;;;;;;;2.80;2.13;;;;;;;;;;12914437;22;21167;-90
2023/07/22 11:58:58;;;;;;;3.50;1.85;;;;;;;;;;12908648;22;20392;-87
2023/07/22 12:04:02;;;;;;;3.80;2.00;;;;;;;;;;12912075;22;20384;-87
2023/07/22 12:09:05;;;;;;;2.57;1.87;;;;;;;;;;12916093;22;20381;-88
2023/07/22 12:14:12;;;;;;;2.85;1.95;;;;;;;;;;12930697;22;20368;-87
2023/07/22 12:19:15;;;;;;;2.60;2.13;;;;;;;;;;12912906;22;20415;-88
2023/07/22 12:24:18;;;;;;;3.45;2.53;;;;;;;;;;12906204;22;20364;-88
2023/07/22 12:29:21;;;;;;;2.83;1.90;;;;;;;;;;12930214;23;20441;-89
2023/07/22 12:34:25;;;;;;;3.20;2.03;;;;;;;;;;12910379;22;20372;-88
2023/07/22 12:39:29;;;;;;;2.65;1.67;;;;;;;;;;12909906;22;20387;-88
2023/07/22 12:44:32;;;;;;;3.10;1.75;;;;;;;;;;12909213;22;20427;-89
2023/07/22 12:49:35;;;;;;;3.70;1.93;;;;;;;;;;12910141;22;21051;-88
2023/07/22 12:54:39;;;;;;;2.30;1.63;;;;;;;;;;12909441;22;20756;-89
2023/07/22 12:59:42;;;;;;;2.60;1.60;;;;;;;;;;12909650;22;20616;-88
2023/07/22 13:04:46;;;;;;;2.07;1.80;;;;;;;;;;12909771;22;20442;-88
2023/07/22 13:09:53;;;;;;;3.35;2.10;;;;;;;;;;12910944;22;20380;-90
2023/07/22 13:14:56;;;;;;;2.75;1.80;;;;;;;;;;12925483;22;20364;-89
2023/07/22 13:20:00;;;;;;;2.40;1.98;;;;;;;;;;12912423;22;20380;-89
2023/07/22 13:25:03;;;;;;;3.20;1.85;;;;;;;;;;12909075;22;20365;-89
2023/07/22 13:30:08;;;;;;;2.92;2.00;;;;;;;;;;12911413;22;20756;-88
2023/07/22 13:35:11;;;;;;;2.38;1.73;;;;;;;;;;12911019;22;20559;-90
2023/07/22 13:40:14;;;;;;;2.70;1.88;;;;;;;;;;12913863;22;20698;-90
2023/07/22 13:45:16;;;;;;;4.20;2.73;;;;;;;;;;12908484;22;20379;-89
2023/07/22 13:50:20;;;;;;;3.17;1.90;;;;;;;;;;12914682;22;20380;-88
2023/07/22 13:55:23;;;;;;;3.20;1.92;;;;;;;;;;12915200;22;20383;-89
2023/07/22 14:00:25;;;;;;;3.38;2.40;;;;;;;;;;12908308;22;20479;-88
2023/07/22 14:05:29;;;;;;;2.40;1.90;;;;;;;;;;12908872;22;20948;-89
2023/07/22 14:10:31;;;;;;;2.80;1.90;;;;;;;;;;12910560;22;20388;-89
2023/07/22 14:15:33;;;;;;;2.80;1.83;;;;;;;;;;12927121;22;20380;-89
2023/07/22 14:20:37;;;;;;;2.38;1.77;;;;;;;;;;12930686;22;20456;-89
2023/07/22 14:25:40;;;;;;;4.45;2.00;;;;;;;;;;12918173;22;20361;-89
2023/07/22 14:30:42;;;;;;;2.83;1.95;;;;;;;;;;12908552;22;20375;-90
2023/07/22 14:35:46;;;;;;;2.58;1.80;;;;;;;;;;12906301;22;20368;-88
2023/07/22 14:40:48;;;;;;;2.78;1.90;;;;;;;;;;12905484;22;21052;-89
2023/07/22 14:45:51;;;;;;;4.07;2.20;;;;;;;;;;12905844;22;20388;-90
2023/07/22 14:50:55;;;;;;;6.37;2.60;;;;;;;;;;12913355;22;20372;-88
2023/07/22 14:55:57;;;;;;;3.25;2.10;;;;;;;;;;12907644;22;20372;-88
2023/07/22 15:00:59;;;;;;;5.30;2.67;;;;;;;;;;12908616;22;20438;-90
2023/07/22 15:06:03;;;;;;;3.08;2.00;;;;;;;;;;12908505;22;20372;-90
2023/07/22 15:11:05;;;;;;;4.55;2.65;;;;;;;;;;12908966;22;20384;-89
2023/07/22 15:16:07;;;;;;;4.35;2.50;;;;;;;;;;12908153;22;20406;-90
2023/07/22 15:21:11;;;;;;;3.30;2.00;;;;;;;;;;12908333;22;20414;-90
2023/07/22 15:26:13;;;;;;;2.63;2.00;;;;;;;;;;12908202;22;20973;-90
2023/07/22 15:31:17;;;;;;;3.10;2.10;;;;;;;;;;12908342;22;21145;-90
2023/07/22 15:36:21;;;;;;;2.53;1.85;;;;;;;;;;12908953;22;20384;-90
2023/07/22 15:41:24;;;;;;;2.53;1.87;;;;;;;;;;12910942;22;21114;-90
2023/07/22 15:46:26;;;;;;;2.03;1.83;;;;;;;;;;12914989;22;20433;-90
2023/07/22 15:51:30;;;;;;;2.83;2.10;;;;;;;;;;12914669;22;20464;-87
2023/07/22 15:56:32;;;;;;;3.60;2.00;;;;;;;;;;12906582;22;20380;-88
2023/07/22 16:01:35;;;;;;;4.50;2.05;;;;;;;;;;12908979;22;20442;-88
2023/07/22 16:06:38;;;;;;;2.70;1.90;;;;;;;;;;12916346;22;20914;-88
2023/07/22 16:11:41;;;;;;;2.97;1.98;;;;;;;;;;12916449;22;20376;-88
2023/07/22 16:16:43;;;;;;;2.80;1.85;;;;;;;;;;12947497;22;20372;-88
2023/07/22 16:21:47;;;;;;;3.40;2.00;;;;;;;;;;12934742;22;20457;-90
2023/07/22 16:26:49;;;;;;;2.50;2.00;;;;;;;;;;12913376;22;20365;-89
2023/07/22 16:31:51;;;;;;;3.42;2.20;;;;;;;;;;12910485;22;20408;-91
2023/07/22 16:36:55;;;;;;;3.15;2.00;;;;;;;;;;12909595;22;20384;-90
2023/07/22 16:41:58;;;;;;;3.23;1.90;;;;;;;;;;12911498;22;20380;-91
2023/07/22 16:47:00;;;;;;;3.15;2.30;;;;;;;;;;12913814;22;20447;-90
2023/07/22 16:52:05;;;;;;;3.35;2.08;;;;;;;;;;12914772;22;20364;-90
2023/07/22 16:57:07;;;;;;;2.97;2.10;;;;;;;;;;12916314;22;20365;-91
2023/07/22 17:02:10;;;;;;;2.75;2.25;;;;;;;;;;12922649;22;20385;-90
2023/07/22 17:07:16;;;;;;;2.88;2.25;;;;;;;;;;12927744;22;20372;-90
2023/07/22 17:12:18;;;;;;;2.90;1.90;;;;;;;;;;12917532;22;21193;-91
2023/07/22 17:17:20;;;;;;;3.17;1.90;;;;;;;;;;12916882;22;20428;-91
2023/07/22 17:22:24;;;;;;;2.72;1.88;;;;;;;;;;12937982;23;20384;-90
2023/07/22 17:27:27;;;;;;;3.77;1.90;;;;;;;;;;12915883;22;20490;-91
2023/07/22 17:32:29;;;;;;;3.33;2.07;;;;;;;;;;12915316;22;20368;-91
2023/07/22 17:37:33;;;;;;;4.60;2.10;;;;;;;;;;12917520;22;20356;-91
2023/07/22 17:42:35;;;;;;;2.65;1.92;;;;;;;;;;12917558;23;20930;-91
2023/07/22 17:47:37;;;;;;;3.10;2.05;;;;;;;;;;12917496;22;20423;-91
2023/07/22 17:52:42;;;;;;;2.75;1.90;;;;;;;;;;12916863;22;20364;-89
2023/07/22 17:57:44;;;;;;;2.60;2.00;;;;;;;;;;12939740;23;20364;-90
2023/07/22 18:02:46;;;;;;;3.28;1.90;;;;;;;;;;12919542;22;20384;-90
2023/07/22 18:07:50;;;;;;;3.35;2.03;;;;;;;;;;12915562;22;20422;-90
2023/07/22 18:12:52;;;;;;;3.72;2.13;;;;;;;;;;12916653;22;20364;-89
2023/07/22 18:17:55;;;;;;;3.50;2.20;;;;;;;;;;12918059;22;20894;-91
2023/07/22 18:22:58;;;;;;;3.38;2.10;;;;;;;;;;12916757;22;20748;-90
2023/07/22 18:28:01;;;;;;;2.50;1.95;;;;;;;;;;12916706;23;20697;-91
2023/07/22 18:33:04;;;;;;;3.95;2.10;;;;;;;;;;12917253;22;20414;-90
2023/07/22 18:38:08;;;;;;;4.78;1.90;;;;;;;;;;12913920;22;20418;-90
2023/07/22 18:43:10;;;;;;;3.23;2.27;;;;;;;;;;12916710;22;20388;-91
2023/07/22 18:48:12;;;;;;;4.20;2.13;;;;;;;;;;12915592;22;21305;-91
2023/07/22 18:53:16;;;;;;;5.73;2.80;;;;;;;;;;12916814;22;20395;-90
2023/07/22 18:58:18;;;;;;;6.63;2.97;;;;;;;;;;12917615;22;20895;-89
2023/07/22 19:03:21;;;;;;;5.47;2.60;;;;;;;;;;12923809;22;20502;-91
2023/07/22 19:08:27;;;;;;;3.60;2.30;;;;;;;;;;12939056;23;20407;-92
2023/07/22 19:13:29;;;;;;;3.60;2.58;;;;;;;;;;12914240;22;20365;-91
2023/07/22 19:18:31;;;;;;;2.85;2.30;;;;;;;;;;12921256;22;20361;-91
2023/07/22 19:23:35;;;;;;;4.15;2.30;;;;;;;;;;12936519;23;20376;-91
2023/07/22 19:28:38;;;;;;;3.33;2.35;;;;;;;;;;12918665;22;20356;-92
2023/07/22 19:33:40;;;;;;;4.80;2.75;;;;;;;;;;12915603;22;20739;-90
2023/07/22 19:38:44;;;;;;;4.07;2.65;;;;;;;;;;12922422;22;20361;-91
2023/07/22 19:43:46;;;;;;;4.18;3.20;;;;;;;;;;12920528;22;20477;-92
2023/07/22 19:48:48;;;;;;;6.30;3.40;;;;;;;;;;12919256;22;20369;-92
2023/07/22 19:53:53;;;;;;;4.68;2.92;;;;;;;;;;12920562;22;20376;-91
2023/07/22 19:58:55;;;;;;;5.53;3.40;;;;;;;;;;12920795;22;20368;-92
2023/07/22 20:03:57;;;;;;;5.35;3.60;;;;;;;;;;12920924;22;20388;-91
2023/07/22 20:09:01;;;;;;;4.20;3.00;;;;;;;;;;12912114;23;20462;-91
2023/07/22 20:14:04;;;;;;;4.45;3.10;;;;;;;;;;12917074;22;20368;-92
2023/07/22 20:19:07;;;;;;;4.90;2.80;;;;;;;;;;12926129;22;20423;-91
2023/07/22 20:24:13;;;;;;;4.30;3.15;;;;;;;;;;12903709;22;20471;-92
2023/07/22 20:29:15;;;;;;;4.70;3.10;;;;;;;;;;12904796;22;20689;-91
2023/07/22 20:34:18;;;;;;;6.40;4.30;;;;;;;;;;12945587;23;20361;-91
2023/07/22 20:39:22;;;;;;;7.10;4.72;;;;;;;;;;12933797;22;20372;-91
2023/07/22 20:44:24;;;;;;;7.00;4.80;;;;;;;;;;12904530;23;20376;-91
2023/07/22 20:49:26;;;;;;;7.33;4.90;;;;;;;;;;12922600;22;20368;-92
2023/07/22 20:54:30;;;;;;;7.78;5.25;;;;;;;;;;12906173;22;20419;-91
2023/07/22 20:59:32;;;;;;;8.47;4.90;;;;;;;;;;12919458;22;20414;-91
2023/07/22 21:04:35;;;;;;;7.23;5.37;;;;;;;;;;12919296;22;20454;-91
2023/07/22 21:09:39;;;;;;;8.13;5.60;;;;;;;;;;12925398;23;20364;-91
2023/07/22 21:14:42;;;;;;;7.43;5.85;;;;;;;;;;12920251;23;20898;-90
2023/07/22 21:19:44;;;;;;;7.10;4.93;;;;;;;;;;12919300;23;20386;-92
2023/07/22 21:24:48;;;;;;;8.73;5.95;;;;;;;;;;12938641;23;20495;-91
2023/07/22 21:29:50;;;;;;;8.60;5.72;;;;;;;;;;12904568;23;20774;-91
2023/07/22 21:34:53;;;;;;;7.90;5.78;;;;;;;;;;12912641;22;20360;-91
2023/07/22 21:39:56;;;;;;;8.73;5.10;;;;;;;;;;12940469;23;20371;-91
2023/07/22 21:45:01;;;;;;;9.15;5.20;;;;;;;;;;12911972;22;20447;-91
2023/07/22 21:50:03;;;;;;;8.35;5.47;;;;;;;;;;12913304;22;20442;-91
2023/07/22 21:55:08;;;;;;;7.63;5.07;;;;;;;;;;12940232;23;20360;-91
2023/07/22 22:00:13;;;;;;;8.40;5.38;;;;;;;;;;12938331;23;20422;-89
2023/07/22 22:05:19;;;;;;;8.80;5.57;;;;;;;;;;12907794;22;20848;-90
2023/07/22 22:10:22;;;;;;;9.63;5.15;;;;;;;;;;12906383;22;20399;-89
2023/07/22 22:15:25;;;;;;;7.83;4.80;;;;;;;;;;12913376;22;20384;-89
2023/07/22 22:20:28;;;;;;;8.97;5.37;;;;;;;;;;12907852;22;20376;-88
2023/07/22 22:25:32;;;;;;;7.15;4.93;;;;;;;;;;12919830;22;21055;-89
2023/07/22 22:30:35;;;;;;;8.18;4.88;;;;;;;;;;12915310;22;20384;-90
2023/07/22 22:35:37;;;;;;;8.47;4.90;;;;;;;;;;12906401;22;20411;-89
2023/07/22 22:40:41;;;;;;;6.03;4.45;;;;;;;;;;12908861;22;20372;-91
2023/07/22 22:45:43;;;;;;;6.97;4.67;;;;;;;;;;12916153;22;20384;-90
2023/07/22 22:50:46;;;;;;;7.85;3.70;;;;;;;;;;12913957;22;20368;-89
2023/07/22 22:55:51;;;;;;;5.53;3.75;;;;;;;;;;12912970;22;20399;-89
2023/07/22 23:00:53;;;;;;;5.88;3.78;;;;;;;;;;12916594;22;20748;-90
2023/07/22 23:05:56;;;;;;;6.32;3.72;;;;;;;;;;12919621;22;20368;-89
2023/07/22 23:11:00;;;;;;;5.88;4.10;;;;;;;;;;12903652;22;20372;-90
2023/07/22 23:16:02;;;;;;;8.73;4.77;;;;;;;;;;12915971;23;20372;-90
2023/07/22 23:21:05;;;;;;;5.63;3.80;;;;;;;;;;12915692;22;20368;-90
2023/07/22 23:26:09;;;;;;;8.15;3.88;;;;;;;;;;12912661;22;20414;-90
2023/07/22 23:31:11;;;;;;;6.38;3.60;;;;;;;;;;12939861;23;20399;-89
2023/07/22 23:36:14;;;;;;;5.03;3.40;;;;;;;;;;12909227;23;20372;-90
2023/07/22 23:41:18;;;;;;;6.00;3.75;;;;;;;;;;12915127;22;20364;-90
2023/07/22 23:46:20;;;;;;;4.73;3.40;;;;;;;;;;12910218;22;20426;-89
2023/07/22 23:51:23;;;;;;;6.32;3.40;;;;;;;;;;12921098;22;20364;-90
2023/07/22 23:56:27;;;;;;;5.82;3.55;;;;;;;;;;12937300;23;20760;-90
